LFBH/LRH METAR and TAF weather

Enter ICAO airport designator
Station Type Date Time Source
LFBH METAR 2022/01/29 12:30 UTC NOAA

LFBH 291230Z AUTO 16005KT 9000 OVC010 07/05 Q1038 BECMG BKN020


Station Type Date Time Source
LFBH Decoded METAR 2022/01/29 12:30 UTC NOAA

La Rochelle, France (LFBH) 46-09N 001-09W 10M
Jan 29, 2022 - 07:30 AM EST / 2022.01.29 1230 UTC
Wind: from the SSE (160 degrees) at 6 MPH (5 KT):0
Visibility: 5 mile(s):0
Sky conditions: overcast
Temperature: 44 F (7 C)
Dew Point: 41 F (5 C)
Relative Humidity: 87%
Pressure (altimeter): 30.65 in. Hg (1038 hPa)
ob: LFBH 291230Z AUTO 16005KT 9000 OVC010 07/05 Q1038 BECMG BKN020
cycle: 12

Station Type Date Time Source
LFBH TAF 2022/01/29 12:42 UTC NOAA

TAF LFBH 291100Z 2912/3012 19004KT 9999 BKN013
BECMG 2912/2914 BKN020 PROB40 3000/3006 2000 BR

Example: see airport list